createdAt,value
2019-01-14T00:00:30.443Z,983.31
2019-01-14T00:01:30.389Z,983.35
2019-01-14T00:02:30.354Z,983.43
2019-01-14T00:03:30.348Z,983.42
2019-01-14T00:04:30.330Z,983.38
2019-01-14T00:05:30.348Z,983.27
2019-01-14T00:06:30.388Z,983.34
2019-01-14T00:07:30.325Z,983.37
2019-01-14T00:08:30.300Z,983.53
2019-01-14T00:09:31.206Z,983.62
2019-01-14T00:10:30.313Z,983.66
2019-01-14T00:11:30.281Z,983.51
2019-01-14T00:12:30.277Z,983.72
2019-01-14T00:13:30.249Z,983.64
2019-01-14T00:14:30.252Z,983.80
2019-01-14T00:15:30.218Z,983.70
2019-01-14T00:16:30.222Z,983.45
2019-01-14T00:17:30.225Z,983.76
2019-01-14T00:18:30.209Z,983.79
2019-01-14T00:19:30.196Z,983.84
2019-01-14T00:20:30.181Z,983.80
2019-01-14T00:21:30.167Z,983.95
2019-01-14T00:22:30.163Z,983.96
2019-01-14T00:23:30.152Z,983.81
2019-01-14T00:24:30.128Z,983.79
2019-01-14T00:25:30.125Z,984.00
2019-01-14T00:26:30.121Z,983.94
2019-01-14T00:27:30.110Z,983.89
2019-01-14T00:28:30.085Z,983.96
2019-01-14T00:29:30.065Z,984.04
2019-01-14T00:30:37.111Z,983.92
2019-01-14T00:31:30.049Z,984.02
2019-01-14T00:32:30.072Z,983.96
2019-01-14T00:33:30.034Z,984.13
2019-01-14T00:34:30.022Z,984.02
2019-01-14T00:35:29.999Z,984.18
2019-01-14T00:36:29.991Z,984.11
2019-01-14T00:37:38.091Z,984.12
2019-01-14T00:38:38.041Z,984.07
2019-01-14T00:39:30.836Z,984.16
2019-01-14T00:40:37.336Z,984.20
2019-01-14T00:41:29.948Z,984.21
2019-01-14T00:42:29.971Z,984.16
2019-01-14T00:43:29.934Z,984.38
2019-01-14T00:44:29.920Z,984.40
2019-01-14T00:45:29.898Z,984.43
2019-01-14T00:46:29.884Z,984.43
2019-01-14T00:47:29.898Z,984.42
2019-01-14T00:48:29.881Z,984.43
2019-01-14T00:49:29.878Z,984.45
2019-01-14T00:50:29.849Z,984.49
2019-01-14T00:51:29.885Z,984.50
2019-01-14T00:52:30.835Z,984.62
2019-01-14T00:53:29.853Z,984.51
2019-01-14T00:54:29.815Z,984.55
2019-01-14T00:55:29.876Z,984.66
2019-01-14T00:56:29.788Z,984.74
2019-01-14T00:57:29.812Z,984.63
2019-01-14T00:58:29.768Z,984.75
2019-01-14T00:59:29.755Z,984.71
2019-01-14T01:00:29.754Z,984.74
2019-01-14T01:01:29.745Z,984.73
2019-01-14T01:02:29.731Z,984.71
2019-01-14T01:03:29.712Z,984.81
2019-01-14T01:04:29.689Z,984.76
2019-01-14T01:05:29.700Z,984.78
2019-01-14T01:06:29.680Z,984.79
2019-01-14T01:07:29.697Z,984.86
2019-01-14T01:08:29.662Z,984.82
2019-01-14T01:09:29.667Z,984.79
2019-01-14T01:10:29.629Z,984.77
2019-01-14T01:11:29.624Z,984.88
2019-01-14T01:12:29.645Z,985.04
2019-01-14T01:13:29.635Z,984.98
2019-01-14T01:14:29.604Z,985.05
2019-01-14T01:15:29.611Z,985.07
2019-01-14T01:16:29.567Z,985.07
2019-01-14T01:17:29.602Z,985.07
2019-01-14T01:18:29.557Z,985.09
2019-01-14T01:19:29.549Z,985.15
2019-01-14T01:20:29.560Z,985.22
2019-01-14T01:21:29.522Z,985.11
2019-01-14T01:22:29.557Z,985.30
2019-01-14T01:23:29.540Z,985.24
2019-01-14T01:24:29.535Z,985.14
2019-01-14T01:25:29.469Z,985.15
2019-01-14T01:26:29.466Z,985.23
2019-01-14T01:27:36.594Z,985.31
2019-01-14T01:28:29.437Z,985.36
2019-01-14T01:29:36.509Z,985.42
2019-01-14T01:30:29.435Z,985.40
2019-01-14T01:31:29.443Z,985.45
2019-01-14T01:32:29.449Z,985.56
2019-01-14T01:33:29.436Z,985.59
2019-01-14T01:34:29.379Z,985.51
2019-01-14T01:35:29.374Z,985.59
2019-01-14T01:36:31.942Z,985.57
2019-01-14T01:37:29.371Z,985.62
2019-01-14T01:38:29.344Z,985.56
2019-01-14T01:39:30.920Z,985.57
2019-01-14T01:40:29.327Z,985.55
2019-01-14T01:41:29.312Z,985.65
2019-01-14T01:42:29.320Z,985.50
2019-01-14T01:43:29.282Z,985.71
2019-01-14T01:44:29.280Z,985.67
2019-01-14T01:45:29.262Z,985.68
2019-01-14T01:46:29.258Z,985.87
2019-01-14T01:47:29.261Z,985.91
2019-01-14T01:48:29.222Z,986.01
2019-01-14T01:49:29.242Z,986.03
2019-01-14T01:50:29.221Z,986.01
2019-01-14T01:51:29.219Z,986.00
2019-01-14T01:52:29.847Z,986.04
2019-01-14T01:53:36.752Z,986.08
2019-01-14T01:54:29.171Z,986.06
2019-01-14T01:55:29.173Z,986.14
2019-01-14T01:56:29.170Z,986.21
2019-01-14T01:57:37.719Z,986.17
2019-01-14T01:58:36.203Z,986.19
2019-01-14T01:59:36.194Z,986.15
2019-01-14T02:00:36.192Z,986.28
2019-01-14T02:01:36.763Z,986.23
2019-01-14T02:02:29.106Z,986.26
2019-01-14T02:03:29.099Z,986.18
2019-01-14T02:04:29.068Z,986.27
2019-01-14T02:05:29.050Z,986.29
2019-01-14T02:06:29.037Z,986.30
2019-01-14T02:07:29.046Z,986.30
2019-01-14T02:08:29.024Z,986.33
2019-01-14T02:09:29.006Z,986.43
2019-01-14T02:10:28.996Z,986.42
2019-01-14T02:11:28.971Z,986.44
2019-01-14T02:12:29.013Z,986.48
2019-01-14T02:13:28.968Z,986.59
2019-01-14T02:14:28.971Z,986.40
2019-01-14T02:15:28.941Z,986.65
2019-01-14T02:16:28.952Z,986.53
2019-01-14T02:17:28.934Z,986.63
2019-01-14T02:18:28.917Z,986.58
2019-01-14T02:19:28.901Z,986.71
2019-01-14T02:20:28.902Z,986.55
2019-01-14T02:21:28.900Z,986.74
2019-01-14T02:22:28.868Z,986.68
2019-01-14T02:23:28.874Z,986.77
2019-01-14T02:24:37.574Z,986.78
2019-01-14T02:25:37.588Z,986.75
2019-01-14T02:26:28.836Z,986.72
2019-01-14T02:27:35.938Z,986.90
2019-01-14T02:28:37.667Z,986.82
2019-01-14T02:29:28.800Z,986.78
2019-01-14T02:30:28.806Z,986.77
2019-01-14T02:31:36.868Z,986.81
2019-01-14T02:32:36.850Z,986.80
2019-01-14T02:33:36.298Z,986.79
2019-01-14T02:34:28.762Z,986.85
2019-01-14T02:35:28.728Z,987.05
2019-01-14T02:36:28.722Z,986.89
2019-01-14T02:37:28.745Z,987.00
2019-01-14T02:38:28.737Z,987.02
2019-01-14T02:39:28.691Z,987.08
2019-01-14T02:40:28.670Z,987.02
2019-01-14T02:41:28.674Z,987.17
2019-01-14T02:42:28.665Z,987.07
2019-01-14T02:43:28.656Z,987.11
2019-01-14T02:44:28.641Z,987.26
2019-01-14T02:45:28.624Z,987.04
2019-01-14T02:46:28.608Z,987.34
2019-01-14T02:47:28.616Z,987.41
2019-01-14T02:48:28.634Z,987.43
2019-01-14T02:49:28.603Z,987.52
2019-01-14T02:50:28.594Z,987.45
2019-01-14T02:51:28.555Z,987.44
2019-01-14T02:52:28.551Z,987.50
2019-01-14T02:53:28.556Z,987.61
2019-01-14T02:54:28.546Z,987.49
2019-01-14T02:55:28.555Z,987.50
2019-01-14T02:56:28.533Z,987.60
2019-01-14T02:57:28.490Z,987.63
2019-01-14T02:58:28.515Z,987.67
2019-01-14T02:59:28.479Z,987.65
2019-01-14T03:00:28.482Z,987.68
2019-01-14T03:01:28.466Z,987.71
2019-01-14T03:02:28.453Z,987.76
2019-01-14T03:03:28.448Z,987.80
2019-01-14T03:04:28.433Z,987.81
2019-01-14T03:05:29.186Z,987.92
2019-01-14T03:06:28.435Z,987.81
2019-01-14T03:07:28.405Z,987.98
2019-01-14T03:08:28.407Z,988.01
2019-01-14T03:09:28.368Z,987.78
2019-01-14T03:10:28.367Z,987.93
2019-01-14T03:11:28.361Z,988.06
2019-01-14T03:12:28.371Z,988.10
2019-01-14T03:13:28.340Z,988.10
2019-01-14T03:14:28.329Z,988.10
2019-01-14T03:15:28.321Z,988.18
2019-01-14T03:16:28.298Z,988.08
2019-01-14T03:17:28.290Z,988.24
2019-01-14T03:18:28.308Z,988.35
2019-01-14T03:19:28.266Z,988.34
2019-01-14T03:20:28.277Z,988.16
2019-01-14T03:21:28.245Z,988.22
2019-01-14T03:22:28.259Z,988.32
2019-01-14T03:23:29.200Z,988.38
2019-01-14T03:24:28.221Z,988.36
2019-01-14T03:25:36.255Z,988.50
2019-01-14T03:26:28.191Z,988.51
2019-01-14T03:27:28.178Z,988.48
2019-01-14T03:28:28.198Z,988.41
2019-01-14T03:29:28.166Z,988.55
2019-01-14T03:30:28.152Z,988.53
2019-01-14T03:31:28.147Z,988.47
2019-01-14T03:32:28.121Z,988.52
2019-01-14T03:33:28.116Z,988.73
2019-01-14T03:34:28.102Z,988.69
2019-01-14T03:35:28.097Z,988.72
2019-01-14T03:36:28.086Z,988.82
2019-01-14T03:37:28.060Z,988.81
2019-01-14T03:38:28.101Z,988.67
2019-01-14T03:39:28.061Z,988.79
2019-01-14T03:40:28.048Z,988.79
2019-01-14T03:41:28.041Z,988.92
2019-01-14T03:42:28.023Z,988.78
2019-01-14T03:43:28.031Z,988.98
2019-01-14T03:44:28.022Z,988.85
2019-01-14T03:45:27.988Z,988.89
2019-01-14T03:46:28.006Z,988.76
2019-01-14T03:47:27.963Z,988.92
2019-01-14T03:48:27.982Z,988.97
2019-01-14T03:49:27.969Z,988.94
2019-01-14T03:50:27.944Z,989.05
2019-01-14T03:51:27.915Z,988.99
2019-01-14T03:52:27.916Z,989.06
2019-01-14T03:53:27.932Z,988.97
2019-01-14T03:54:27.901Z,989.05
2019-01-14T03:55:27.867Z,988.97
2019-01-14T03:56:27.872Z,988.95
2019-01-14T03:57:27.858Z,988.98
2019-01-14T03:58:27.854Z,989.05
2019-01-14T03:59:27.842Z,989.02
2019-01-14T04:00:27.830Z,989.00
2019-01-14T04:01:35.781Z,989.14
2019-01-14T04:02:27.826Z,989.12
2019-01-14T04:03:27.812Z,989.20
2019-01-14T04:04:27.797Z,989.08
2019-01-14T04:05:27.775Z,989.22
2019-01-14T04:06:27.766Z,989.22
2019-01-14T04:07:27.751Z,989.29
2019-01-14T04:08:27.739Z,989.45
2019-01-14T04:09:27.746Z,989.35
2019-01-14T04:10:27.728Z,989.33
2019-01-14T04:11:27.732Z,989.36
2019-01-14T04:12:27.691Z,989.34
2019-01-14T04:13:27.723Z,989.20
2019-01-14T04:14:27.694Z,989.36
2019-01-14T04:15:27.666Z,989.34
2019-01-14T04:16:27.657Z,989.39
2019-01-14T04:17:27.658Z,989.20
2019-01-14T04:18:27.649Z,989.44
2019-01-14T04:19:27.623Z,989.56
2019-01-14T04:20:27.616Z,989.54
2019-01-14T04:21:27.625Z,989.37
2019-01-14T04:22:27.596Z,989.45
2019-01-14T04:23:27.638Z,989.55
2019-01-14T04:24:27.570Z,989.52
2019-01-14T04:25:27.543Z,989.64
2019-01-14T04:26:27.537Z,989.50
2019-01-14T04:27:27.533Z,989.59
2019-01-14T04:28:27.537Z,989.57
2019-01-14T04:29:27.545Z,989.59
2019-01-14T04:30:27.496Z,989.75
2019-01-14T04:31:27.498Z,989.69
2019-01-14T04:32:27.484Z,989.68
2019-01-14T04:33:27.505Z,989.66
2019-01-14T04:34:27.480Z,989.75
2019-01-14T04:35:27.448Z,989.78
2019-01-14T04:36:27.447Z,989.63
2019-01-14T04:37:27.431Z,989.76
2019-01-14T04:38:27.420Z,989.77
2019-01-14T04:39:27.461Z,989.77
2019-01-14T04:40:27.402Z,989.93
2019-01-14T04:41:27.401Z,989.92
2019-01-14T04:42:27.367Z,989.87
2019-01-14T04:43:27.366Z,990.04
2019-01-14T04:44:27.386Z,990.09
2019-01-14T04:45:27.362Z,990.00
2019-01-14T04:46:35.429Z,990.03
2019-01-14T04:47:27.320Z,990.05
2019-01-14T04:48:27.411Z,990.16
2019-01-14T04:49:27.311Z,990.18
2019-01-14T04:50:27.290Z,990.12
2019-01-14T04:51:27.288Z,990.14
2019-01-14T04:52:27.264Z,990.24
2019-01-14T04:53:27.291Z,990.23
2019-01-14T04:54:27.260Z,990.19
2019-01-14T04:55:27.256Z,990.30
2019-01-14T04:56:27.243Z,990.31
2019-01-14T04:57:27.237Z,990.36
2019-01-14T04:58:27.220Z,990.29
2019-01-14T04:59:27.249Z,990.26
2019-01-14T05:00:27.182Z,990.23
2019-01-14T05:01:27.193Z,990.35
2019-01-14T05:02:27.178Z,990.41
2019-01-14T05:03:27.187Z,990.27
2019-01-14T05:04:27.189Z,990.49
2019-01-14T05:05:27.166Z,990.52
2019-01-14T05:06:27.138Z,990.46
2019-01-14T05:07:29.607Z,990.42
2019-01-14T05:08:27.129Z,990.54
2019-01-14T05:09:27.309Z,990.52
2019-01-14T05:10:27.086Z,990.49
2019-01-14T05:11:27.074Z,990.50
2019-01-14T05:12:27.089Z,990.51
2019-01-14T05:13:27.071Z,990.52
2019-01-14T05:14:27.087Z,990.43
2019-01-14T05:15:27.789Z,990.68
2019-01-14T05:16:27.072Z,990.60
2019-01-14T05:17:27.034Z,990.67
2019-01-14T05:18:27.028Z,990.60
2019-01-14T05:19:27.020Z,990.59
2019-01-14T05:20:26.984Z,990.64
2019-01-14T05:21:26.989Z,990.67
2019-01-14T05:22:26.960Z,990.65
2019-01-14T05:23:26.958Z,990.63
2019-01-14T05:24:26.968Z,990.73
2019-01-14T05:25:26.924Z,990.72
2019-01-14T05:26:26.933Z,990.74
2019-01-14T05:27:26.906Z,990.71
2019-01-14T05:28:26.920Z,990.59
2019-01-14T05:29:26.909Z,990.64
2019-01-14T05:30:26.909Z,990.43
2019-01-14T05:31:26.882Z,990.62
2019-01-14T05:32:26.858Z,990.67
2019-01-14T05:33:26.856Z,990.65
2019-01-14T05:34:26.856Z,990.62
2019-01-14T05:35:26.827Z,990.75
2019-01-14T05:36:26.811Z,990.66
2019-01-14T05:37:26.819Z,990.57
2019-01-14T05:38:26.798Z,990.55
2019-01-14T05:39:26.823Z,990.65
2019-01-14T05:40:26.767Z,990.65
2019-01-14T05:41:26.777Z,990.69
2019-01-14T05:42:26.741Z,990.73
2019-01-14T05:43:26.768Z,990.70
2019-01-14T05:44:26.766Z,990.80
2019-01-14T05:45:26.724Z,990.73
2019-01-14T05:46:26.722Z,990.74
2019-01-14T05:47:26.687Z,990.52
2019-01-14T05:48:26.729Z,990.69
2019-01-14T05:49:26.684Z,990.64
2019-01-14T05:50:26.679Z,990.82
2019-01-14T05:51:26.651Z,990.84
2019-01-14T05:52:26.669Z,990.80
2019-01-14T05:53:26.666Z,990.85
2019-01-14T05:54:26.646Z,990.70
2019-01-14T05:55:26.634Z,990.75
2019-01-14T05:56:26.605Z,990.85
2019-01-14T05:57:26.597Z,990.85
2019-01-14T05:58:26.572Z,990.85
2019-01-14T05:59:26.599Z,990.75
2019-01-14T06:00:26.561Z,990.64
2019-01-14T06:01:26.543Z,990.81
2019-01-14T06:02:26.536Z,990.84
2019-01-14T06:03:26.536Z,990.70
2019-01-14T06:04:26.550Z,990.76
2019-01-14T06:05:26.507Z,990.83
2019-01-14T06:06:26.484Z,990.75
2019-01-14T06:07:26.489Z,990.81
2019-01-14T06:08:26.496Z,990.83
2019-01-14T06:09:34.677Z,990.80
2019-01-14T06:10:34.394Z,990.81
2019-01-14T06:11:33.533Z,990.81
2019-01-14T06:12:36.108Z,990.76
2019-01-14T06:13:34.960Z,990.81
2019-01-14T06:14:35.188Z,990.73
2019-01-14T06:15:33.538Z,990.86
2019-01-14T06:16:34.968Z,990.86
2019-01-14T06:17:35.894Z,990.84
2019-01-14T06:18:26.420Z,990.96
2019-01-14T06:19:26.388Z,990.88
2019-01-14T06:20:38.628Z,990.88
2019-01-14T06:21:34.079Z,990.95
2019-01-14T06:22:26.393Z,991.03
2019-01-14T06:23:33.525Z,991.04
2019-01-14T06:25:38.700Z,991.24
2019-01-14T06:26:46.868Z,991.42
2019-01-14T06:27:45.967Z,991.41
2019-01-14T06:28:44.949Z,991.42
2019-01-14T06:29:44.998Z,991.45
2019-01-14T06:30:37.873Z,991.60
2019-01-14T06:31:37.873Z,991.49
2019-01-14T06:32:37.855Z,991.41
2019-01-14T06:33:37.850Z,991.42
2019-01-14T06:34:37.831Z,991.43
2019-01-14T06:35:37.851Z,991.48
2019-01-14T06:36:37.906Z,991.69
2019-01-14T06:37:37.803Z,991.70
2019-01-14T06:38:37.791Z,991.76
2019-01-14T06:39:37.843Z,991.73
2019-01-14T06:40:37.762Z,991.73
2019-01-14T06:41:37.773Z,991.86
2019-01-14T06:42:37.816Z,991.80
2019-01-14T06:43:37.756Z,991.98
2019-01-14T06:44:47.988Z,992.02
2019-01-14T06:45:38.230Z,992.01
2019-01-14T06:46:37.812Z,992.13
2019-01-14T06:47:37.696Z,992.17
2019-01-14T06:48:37.686Z,992.29
2019-01-14T06:49:37.668Z,992.34
2019-01-14T06:50:37.754Z,992.32
2019-01-14T06:51:37.644Z,992.28
2019-01-14T06:52:37.650Z,992.18
2019-01-14T06:53:38.437Z,992.18
2019-01-14T06:54:37.628Z,992.26
2019-01-14T06:55:37.644Z,992.16
2019-01-14T06:56:37.593Z,992.20
2019-01-14T06:57:37.587Z,992.10
2019-01-14T06:58:37.593Z,992.20
2019-01-14T06:59:41.111Z,992.20
2019-01-14T07:00:37.570Z,992.15
2019-01-14T07:01:37.569Z,992.18
2019-01-14T07:02:37.545Z,992.24
2019-01-14T07:03:37.531Z,992.24
2019-01-14T07:04:37.517Z,992.29
2019-01-14T07:05:37.537Z,992.30
2019-01-14T07:06:37.516Z,992.43
2019-01-14T07:07:37.476Z,992.40
2019-01-14T07:08:37.485Z,992.46
2019-01-14T07:09:39.431Z,992.51
2019-01-14T07:10:37.483Z,992.53
2019-01-14T07:11:37.444Z,992.46
2019-01-14T07:12:37.476Z,992.55
2019-01-14T07:13:37.451Z,992.55
2019-01-14T07:14:37.405Z,992.58
2019-01-14T07:15:37.447Z,992.62
2019-01-14T07:16:37.406Z,992.62
2019-01-14T07:17:37.387Z,992.67
2019-01-14T07:18:51.012Z,992.70
2019-01-14T07:19:37.506Z,992.66
2019-01-14T07:20:45.690Z,992.74
2019-01-14T07:21:47.579Z,992.76
2019-01-14T07:22:37.483Z,992.82
2019-01-14T07:23:47.177Z,992.83
2019-01-14T07:24:37.423Z,992.73
2019-01-14T07:25:37.397Z,992.84
2019-01-14T07:26:37.393Z,992.87
2019-01-14T07:27:37.337Z,992.86
2019-01-14T07:28:37.258Z,992.93
2019-01-14T07:29:37.264Z,992.98
2019-01-14T07:30:37.282Z,992.95
2019-01-14T07:31:37.244Z,992.94
2019-01-14T07:32:37.242Z,992.99
2019-01-14T07:34:59.643Z,992.99
2019-01-14T07:35:50.191Z,993.05
2019-01-14T07:37:00.569Z,993.06
2019-01-14T07:37:50.275Z,993.01
2019-01-14T07:38:50.122Z,993.04
2019-01-14T07:39:50.133Z,993.08
2019-01-14T07:40:50.665Z,993.09
2019-01-14T07:41:50.056Z,993.05
2019-01-14T07:42:50.040Z,993.08
2019-01-14T07:43:49.994Z,993.00
2019-01-14T07:44:50.000Z,993.11
2019-01-14T07:45:50.038Z,993.12
2019-01-14T07:46:49.974Z,993.09
2019-01-14T07:47:49.976Z,993.09
2019-01-14T07:48:49.964Z,993.21
2019-01-14T07:49:49.958Z,993.15
2019-01-14T07:50:49.962Z,993.16
2019-01-14T07:51:49.922Z,993.08
2019-01-14T07:52:50.505Z,993.23
2019-01-14T07:53:49.916Z,993.13
2019-01-14T07:54:49.879Z,993.22
2019-01-14T07:55:49.900Z,993.20
2019-01-14T07:56:49.944Z,993.20
2019-01-14T07:57:57.879Z,993.26
2019-01-14T07:58:58.179Z,993.28
2019-01-14T07:59:57.774Z,993.21
2019-01-14T08:00:58.843Z,993.29
2019-01-14T08:01:49.833Z,993.25
2019-01-14T08:02:49.810Z,993.26
2019-01-14T08:03:49.791Z,993.27
2019-01-14T08:04:49.784Z,993.28
2019-01-14T08:05:49.810Z,993.35
2019-01-14T08:06:49.753Z,993.41
2019-01-14T08:07:49.770Z,993.29
2019-01-14T08:08:50.631Z,993.42
2019-01-14T08:09:49.729Z,993.43
2019-01-14T08:10:49.735Z,993.50
2019-01-14T08:11:49.722Z,993.54
2019-01-14T08:12:49.704Z,993.48
2019-01-14T08:13:49.677Z,993.54
2019-01-14T08:14:49.675Z,993.51
2019-01-14T08:15:49.703Z,993.49
2019-01-14T08:16:49.692Z,993.58
2019-01-14T08:17:49.646Z,993.48
2019-01-14T08:18:49.683Z,993.62
2019-01-14T08:19:49.628Z,993.63
2019-01-14T08:20:49.694Z,993.71
2019-01-14T08:21:49.611Z,993.64
2019-01-14T08:22:49.601Z,993.72
2019-01-14T08:23:49.595Z,993.53
2019-01-14T08:24:49.599Z,993.59
2019-01-14T08:25:49.613Z,993.56
2019-01-14T08:26:49.577Z,993.61
2019-01-14T08:27:49.540Z,993.63
2019-01-14T08:28:49.522Z,993.62
2019-01-14T08:29:49.539Z,993.55
2019-01-14T08:30:49.541Z,993.57
2019-01-14T08:31:49.493Z,993.66
2019-01-14T08:32:49.520Z,993.61
2019-01-14T08:33:49.470Z,993.65
2019-01-14T08:34:49.460Z,993.65
2019-01-14T08:35:49.467Z,993.69
2019-01-14T08:37:00.704Z,993.73
2019-01-14T08:37:57.777Z,993.74
2019-01-14T08:38:49.536Z,993.81
2019-01-14T08:39:49.441Z,993.69
2019-01-14T08:40:49.441Z,993.76
2019-01-14T08:41:49.696Z,993.71
2019-01-14T08:42:49.407Z,993.64
2019-01-14T08:43:49.357Z,993.79
2019-01-14T08:44:49.358Z,993.77
2019-01-14T08:45:49.363Z,993.65
2019-01-14T08:46:49.324Z,993.76
2019-01-14T08:47:49.319Z,993.74
2019-01-14T08:48:49.331Z,993.68
2019-01-14T08:49:49.317Z,993.73
2019-01-14T08:50:49.326Z,993.82
2019-01-14T08:51:49.284Z,993.93
2019-01-14T08:52:49.266Z,993.88
2019-01-14T08:53:49.325Z,993.97
2019-01-14T08:54:49.254Z,994.01
2019-01-14T08:55:49.270Z,993.90
2019-01-14T08:56:50.122Z,993.95
2019-01-14T08:57:54.413Z,993.99
2019-01-14T08:58:50.193Z,994.03
2019-01-14T08:59:49.190Z,994.07
2019-01-14T09:00:49.209Z,994.04
2019-01-14T09:01:49.179Z,994.15
2019-01-14T09:02:49.192Z,994.05
2019-01-14T09:03:49.159Z,994.11
2019-01-14T09:04:49.136Z,994.07
2019-01-14T09:05:49.157Z,994.03
2019-01-14T09:06:49.123Z,994.19
2019-01-14T09:07:49.105Z,994.24
2019-01-14T09:08:49.118Z,994.21
2019-01-14T09:09:49.112Z,994.22
2019-01-14T09:10:49.101Z,994.25
2019-01-14T09:11:49.056Z,994.31
2019-01-14T09:12:49.067Z,994.25
2019-01-14T09:13:49.065Z,994.27
2019-01-14T09:14:49.039Z,994.19
2019-01-14T09:15:49.055Z,994.28
2019-01-14T09:16:49.020Z,994.06
2019-01-14T09:17:49.018Z,994.28
2019-01-14T09:18:49.002Z,994.22
2019-01-14T09:19:57.057Z,994.35
2019-01-14T09:20:57.080Z,994.32
2019-01-14T09:21:56.040Z,994.30
2019-01-14T09:22:57.495Z,994.30
2019-01-14T09:23:56.988Z,994.39
2019-01-14T09:24:56.742Z,994.26
2019-01-14T09:25:53.725Z,994.08
2019-01-14T09:28:00.534Z,994.34
2019-01-14T09:29:00.512Z,994.22
2019-01-14T09:30:00.494Z,994.33
2019-01-14T09:31:00.550Z,994.15
2019-01-14T09:32:00.476Z,994.37
2019-01-14T09:33:00.463Z,994.33
2019-01-14T09:34:00.461Z,994.38
2019-01-14T09:35:00.449Z,994.42
2019-01-14T09:36:00.453Z,994.43
2019-01-14T09:37:00.426Z,994.44
2019-01-14T09:38:00.424Z,994.56
2019-01-14T09:39:00.393Z,994.48
2019-01-14T09:40:00.385Z,994.32
2019-01-14T09:41:00.420Z,994.40
2019-01-14T09:42:00.373Z,994.43
2019-01-14T09:43:00.379Z,994.43
2019-01-14T09:44:00.358Z,994.48
2019-01-14T09:45:00.356Z,994.44
2019-01-14T09:46:00.402Z,994.46
2019-01-14T09:47:00.339Z,994.47
2019-01-14T09:48:00.342Z,994.42
2019-01-14T09:49:00.300Z,994.52
2019-01-14T09:50:00.283Z,994.51
2019-01-14T09:51:00.262Z,994.43
2019-01-14T09:52:00.281Z,994.57
2019-01-14T09:53:00.281Z,994.45
2019-01-14T09:54:00.252Z,994.56
2019-01-14T09:55:05.443Z,994.47
2019-01-14T09:56:01.219Z,994.59
2019-01-14T09:57:00.267Z,994.41
2019-01-14T09:58:00.213Z,994.56
2019-01-14T09:59:00.216Z,994.53
2019-01-14T10:00:00.192Z,994.35
2019-01-14T10:01:00.185Z,994.50
2019-01-14T10:02:00.188Z,994.46
2019-01-14T10:03:00.153Z,994.37
2019-01-14T10:04:00.141Z,994.49
2019-01-14T10:05:00.232Z,994.54
2019-01-14T10:06:00.120Z,994.53
2019-01-14T10:07:00.125Z,994.49
2019-01-14T10:08:00.085Z,994.54
2019-01-14T10:09:00.093Z,994.43
2019-01-14T10:10:00.136Z,994.49
2019-01-14T10:11:00.084Z,994.37
2019-01-14T10:12:00.089Z,994.33
2019-01-14T10:13:00.055Z,994.45
2019-01-14T10:14:00.034Z,994.41
2019-01-14T10:15:00.025Z,994.47
2019-01-14T10:16:00.014Z,994.38
2019-01-14T10:17:00.027Z,994.48
2019-01-14T10:18:00.004Z,994.20
2019-01-14T10:19:07.041Z,994.25
2019-01-14T10:20:00.021Z,994.28
2019-01-14T10:20:59.966Z,994.34
2019-01-14T10:21:59.966Z,994.37
2019-01-14T10:22:59.953Z,994.40
2019-01-14T10:23:59.926Z,994.46
2019-01-14T10:24:59.927Z,994.40
2019-01-14T10:25:59.895Z,994.31
2019-01-14T10:26:59.916Z,994.50
2019-01-14T10:27:59.889Z,994.44
2019-01-14T10:28:59.874Z,994.43
2019-01-14T10:29:59.866Z,994.34
2019-01-14T10:30:59.876Z,994.47
2019-01-14T10:31:59.854Z,994.37
2019-01-14T10:32:59.830Z,994.42
2019-01-14T10:33:59.836Z,994.30
2019-01-14T10:35:06.894Z,994.39
2019-01-14T10:36:07.843Z,994.45
2019-01-14T10:36:59.868Z,994.33
2019-01-14T10:37:59.789Z,994.45
2019-01-14T10:39:07.854Z,994.39
2019-01-14T10:40:06.837Z,994.44
2019-01-14T10:41:06.833Z,994.40
2019-01-14T10:41:59.759Z,994.46
2019-01-14T10:42:59.922Z,994.48
2019-01-14T10:43:59.705Z,994.36
2019-01-14T10:44:59.702Z,994.33
2019-01-14T10:45:59.689Z,994.41
2019-01-14T10:46:59.698Z,994.35
2019-01-14T10:47:59.685Z,994.32
2019-01-14T10:48:59.675Z,994.19
2019-01-14T10:49:59.652Z,994.38
2019-01-14T10:50:59.643Z,994.46
2019-01-14T10:51:59.657Z,994.51
2019-01-14T10:52:59.713Z,994.37
2019-01-14T10:53:59.621Z,994.43
2019-01-14T10:54:59.591Z,994.34
2019-01-14T10:55:59.588Z,994.39
2019-01-14T10:56:59.601Z,994.43
2019-01-14T10:57:59.581Z,994.38
2019-01-14T10:58:59.566Z,994.37
2019-01-14T10:59:59.549Z,994.39
2019-01-14T11:00:59.546Z,994.45
2019-01-14T11:01:59.555Z,994.33
2019-01-14T11:02:59.520Z,994.43
2019-01-14T11:03:59.501Z,994.43
2019-01-14T11:04:59.484Z,994.35
2019-01-14T11:05:59.470Z,994.41
2019-01-14T11:06:59.486Z,994.44
2019-01-14T11:07:59.449Z,994.52
2019-01-14T11:09:05.802Z,994.61
2019-01-14T11:10:00.489Z,994.56
2019-01-14T11:10:59.470Z,994.56
2019-01-14T11:11:59.455Z,994.66
2019-01-14T11:12:59.410Z,994.62
2019-01-14T11:13:59.406Z,994.81
2019-01-14T11:15:02.972Z,994.37
2019-01-14T11:15:59.377Z,994.65
2019-01-14T11:16:59.386Z,994.66
2019-01-14T11:17:59.391Z,994.64
2019-01-14T11:18:59.360Z,994.71
2019-01-14T11:19:59.336Z,994.82
2019-01-14T11:20:59.317Z,994.70
2019-01-14T11:21:59.336Z,994.56
2019-01-14T11:22:59.318Z,994.65
2019-01-14T11:23:59.283Z,994.81
2019-01-14T11:24:59.305Z,994.82
2019-01-14T11:25:59.259Z,994.90
2019-01-14T11:26:59.283Z,994.70
2019-01-14T11:27:59.260Z,994.79
2019-01-14T11:28:59.231Z,994.78
2019-01-14T11:29:59.227Z,994.75
2019-01-14T11:30:59.237Z,994.75
2019-01-14T11:31:59.226Z,994.86
2019-01-14T11:32:59.198Z,994.86
2019-01-14T11:33:59.190Z,994.66
2019-01-14T11:34:59.197Z,994.87
2019-01-14T11:35:59.372Z,994.86
2019-01-14T11:36:59.184Z,994.72
2019-01-14T11:37:59.169Z,994.72
2019-01-14T11:39:04.913Z,994.77
2019-01-14T11:40:00.247Z,994.93
2019-01-14T11:40:59.108Z,994.94
2019-01-14T11:41:59.116Z,994.72
2019-01-14T11:42:59.103Z,994.88
2019-01-14T11:43:59.076Z,995.02
2019-01-14T11:44:59.095Z,995.03
2019-01-14T11:45:59.067Z,994.99
2019-01-14T11:46:59.082Z,994.91
2019-01-14T11:47:59.048Z,994.67
2019-01-14T11:48:59.028Z,994.97
2019-01-14T11:49:59.021Z,995.06
2019-01-14T11:50:59.010Z,995.00
2019-01-14T11:51:59.002Z,994.86
2019-01-14T11:52:59.012Z,995.09
2019-01-14T11:53:58.982Z,995.09
2019-01-14T11:54:58.972Z,995.20
2019-01-14T11:55:58.980Z,995.19
2019-01-14T11:56:58.944Z,995.28
2019-01-14T11:57:58.989Z,995.18
2019-01-14T11:58:58.926Z,995.00
2019-01-14T11:59:58.921Z,995.21
2019-01-14T12:00:58.907Z,995.20
2019-01-14T12:01:58.927Z,995.22
2019-01-14T12:02:58.894Z,995.32
2019-01-14T12:03:58.861Z,995.30
2019-01-14T12:04:58.863Z,995.31
2019-01-14T12:05:58.846Z,995.08
2019-01-14T12:06:58.845Z,995.09
2019-01-14T12:07:58.841Z,995.16
2019-01-14T12:08:58.826Z,995.12
2019-01-14T12:09:58.810Z,995.04
2019-01-14T12:10:58.795Z,995.20
2019-01-14T12:11:58.785Z,995.28
2019-01-14T12:12:58.805Z,995.28
2019-01-14T12:13:58.765Z,995.36
2019-01-14T12:14:58.749Z,995.38
2019-01-14T12:16:06.813Z,995.28
2019-01-14T12:17:05.865Z,995.38
2019-01-14T12:18:05.819Z,995.37
2019-01-14T12:18:58.763Z,995.40
2019-01-14T12:19:58.696Z,995.14
2019-01-14T12:20:58.693Z,995.36
2019-01-14T12:21:58.666Z,995.14
2019-01-14T12:22:58.675Z,995.35
2019-01-14T12:23:58.661Z,995.04
2019-01-14T12:24:58.661Z,995.13
2019-01-14T12:25:58.654Z,995.16
2019-01-14T12:26:58.642Z,995.21
2019-01-14T12:27:58.644Z,995.23
2019-01-14T12:28:58.599Z,995.15
2019-01-14T12:29:58.588Z,995.35
2019-01-14T12:30:58.582Z,995.38
2019-01-14T12:31:58.582Z,995.49